Wetterdaten: Woche 26.07.21 - 01.08.21 (KW30)
Datum Zeit Temp. Aussen Temp. o. S. Temp +5cm Feuchte Auss Luftdruck Regen Sonnenschein Regendauer Solar Windben Empfang
26.07.2021 00:00 19,6 C 18,7 C 17,3 C 86 % 1009,5 hPa 0,0 l/m 0,00 h 0,00 h 0 W/m 2,2 km/h (1 Bft) 99,09 %
26.07.2021 01:00 19,0 C 17,8 C 16,6 C 87 % 1009,3 hPa 0,0 l/m 0,00 h 0,00 h 0 W/m 1,4 km/h (1 Bft) 98,06 %
26.07.2021 02:00 18,2 C 17,0 C 16,2 C 89 % 1009,0 hPa 0,0 l/m 0,00 h 0,00 h 0 W/m 5,9 km/h (2 Bft) 98,29 %
26.07.2021 03:00 17,4 C 16,6 C 16,1 C 90 % 1008,9 hPa 0,0 l/m 0,00 h 0,00 h 0 W/m 5,8 km/h (2 Bft) 98,43 %
26.07.2021 04:00 16,9 C 16,1 C 15,7 C 91 % 1009,1 hPa 0,0 l/m 0,00 h 0,00 h 0 W/m 6,0 km/h (2 Bft) 94,85 %
26.07.2021 05:00 16,7 C 16,0 C 15,7 C 92 % 1009,5 hPa 0,0 l/m 0,00 h 0,00 h 6 W/m 4,6 km/h (1 Bft) 97,37 %
26.07.2021 06:00 16,8 C 16,4 C 16,2 C 92 % 1009,7 hPa 0,0 l/m 0,13 h 0,00 h 33 W/m 3,6 km/h (1 Bft) 98,90 %
26.07.2021 07:00 17,6 C 17,6 C 17,3 C 91 % 1010,0 hPa 0,0 l/m 0,00 h 0,00 h 84 W/m 5,6 km/h (1 Bft) 97,02 %
26.07.2021 08:00 19,1 C 19,7 C 18,7 C 88 % 1010,2 hPa 0,0 l/m 0,70 h 0,00 h 208 W/m 10,6 km/h (2 Bft) 99,29 %
26.07.2021 09:00 20,2 C 21,7 C 20,5 C 81 % 1010,5 hPa 0,0 l/m 0,60 h 0,00 h 316 W/m 16,2 km/h (3 Bft) 97,04 %
26.07.2021 10:00 22,0 C 24,2 C 22,2 C 74 % 1010,5 hPa 0,0 l/m 0,57 h 0,00 h 502 W/m 16,4 km/h (3 Bft) 96,75 %
26.07.2021 11:00 23,8 C 25,2 C 23,3 C 68 % 1010,7 hPa 0,0 l/m 0,97 h 0,00 h 790 W/m 21,2 km/h (4 Bft) 97,79 %
26.07.2021 12:00 24,4 C 25,6 C 26,2 C 64 % 1010,7 hPa 0,0 l/m 0,90 h 0,00 h 682 W/m 21,3 km/h (4 Bft) 98,23 %
26.07.2021 13:00 24,7 C 25,7 C 24,2 C 63 % 1010,6 hPa 0,0 l/m 0,93 h 0,00 h 539 W/m 20,6 km/h (4 Bft) 97,93 %
26.07.2021 14:00 24,9 C 25,8 C 23,5 C 62 % 1010,4 hPa 0,0 l/m 0,77 h 0,00 h 520 W/m 21,8 km/h (4 Bft) 95,40 %
26.07.2021 15:00 25,0 C 26,4 C 23,0 C 62 % 1010,4 hPa 0,0 l/m 0,87 h 0,00 h 528 W/m 26,1 km/h (4 Bft) 99,50 %
26.07.2021 16:00 24,8 C 27,0 C 22,5 C 64 % 1010,3 hPa 0,0 l/m 0,77 h 0,00 h 473 W/m 17,6 km/h (3 Bft) 98,93 %
26.07.2021 17:00 24,6 C 26,0 C 22,2 C 67 % 1010,0 hPa 0,0 l/m 0,73 h 0,00 h 383 W/m 20,2 km/h (4 Bft) 94,51 %
26.07.2021 18:00 25,4 C 27,9 C 23,1 C 63 % 1009,9 hPa 0,0 l/m 0,80 h 0,00 h 368 W/m 16,2 km/h (3 Bft) 99,26 %
26.07.2021 19:00 23,7 C 22,4 C 19,1 C 69 % 1010,0 hPa 0,4 l/m 0,03 h 0,23 h 52 W/m 12,0 km/h (2 Bft) 98,36 %
26.07.2021 20:00 20,3 C 19,0 C 15,8 C 85 % 1010,5 hPa 0,2 l/m 0,00 h 0,47 h 15 W/m 7,2 km/h (2 Bft) 96,03 %
26.07.2021 21:00 19,4 C 18,5 C 15,6 C 88 % 1011,1 hPa 0,0 l/m 0,00 h 0,00 h 5 W/m 6,2 km/h (2 Bft) 96,73 %
26.07.2021 22:00 18,9 C 18,3 C 15,6 C 90 % 1011,7 hPa 0,0 l/m 0,00 h 0,03 h 0 W/m 5,8 km/h (2 Bft) 98,29 %
26.07.2021 23:00 18,9 C 18,3 C 16,4 C 89 % 1011,9 hPa 0,0 l/m 0,00 h 0,10 h 0 W/m 7,5 km/h (2 Bft) 95,78 %
27.07.2021 00:00 18,9 C 18,3 C 16,9 C 89 % 1012,0 hPa 0,0 l/m 0,00 h 0,00 h 0 W/m 6,9 km/h (2 Bft) 99,41 %
27.07.2021 01:00 18,7 C 17,8 C 17,0 C 90 % 1012,0 hPa 0,0 l/m 0,00 h 0,00 h 0 W/m 9,0 km/h (2 Bft) 98,48 %
27.07.2021 02:00 18,0 C 17,0 C 16,3 C 92 % 1012,1 hPa 0,0 l/m 0,00 h 0,00 h 0 W/m 6,5 km/h (2 Bft) 95,31 %
27.07.2021 03:00 17,4 C 16,6 C 16,1 C 93 % 1012,1 hPa 0,0 l/m 0,00 h 0,00 h 0 W/m 4,2 km/h (1 Bft) 97,52 %
27.07.2021 04:00 17,2 C 16,3 C 16,1 C 94 % 1012,0 hPa 0,0 l/m 0,00 h 0,00 h 0 W/m 4,9 km/h (1 Bft) 97,01 %
27.07.2021 05:00 16,7 C 15,7 C 15,7 C 95 % 1012,1 hPa 0,0 l/m 0,00 h 0,00 h 5 W/m 4,3 km/h (1 Bft) 97,80 %
27.07.2021 06:00 16,6 C 16,0 C 16,3 C 96 % 1012,2 hPa 0,0 l/m 0,27 h 0,00 h 38 W/m 4,9 km/h (1 Bft) 99,56 %
27.07.2021 07:00 16,9 C 16,7 C 16,9 C 96 % 1012,2 hPa 0,0 l/m 0,00 h 0,00 h 40 W/m 6,8 km/h (2 Bft) 94,93 %
27.07.2021 08:00 17,7 C 17,8 C 17,9 C 95 % 1012,1 hPa 0,0 l/m 0,00 h 0,00 h 119 W/m 7,5 km/h (2 Bft) 98,15 %
27.07.2021 09:00 19,1 C 19,6 C 19,3 C 89 % 1012,3 hPa 0,0 l/m 0,37 h 0,00 h 228 W/m 10,5 km/h (2 Bft) 96,93 %
27.07.2021 10:00 21,1 C 22,8 C 21,6 C 82 % 1012,0 hPa 0,2 l/m 0,83 h 0,00 h 442 W/m 13,5 km/h (3 Bft) 95,67 %
27.07.2021 11:00 23,2 C 24,4 C 23,3 C 75 % 1011,7 hPa 0,0 l/m 0,70 h 0,00 h 513 W/m 16,4 km/h (3 Bft) 98,50 %
27.07.2021 12:00 23,5 C 23,7 C 22,2 C 74 % 1011,8 hPa 0,0 l/m 0,30 h 0,13 h 360 W/m 16,2 km/h (3 Bft) 97,94 %
27.07.2021 13:00 24,1 C 25,3 C 23,5 C 72 % 1011,9 hPa 0,0 l/m 0,97 h 0,00 h 708 W/m 17,3 km/h (3 Bft) 97,43 %
27.07.2021 14:00 25,1 C 26,9 C 23,1 C 66 % 1011,5 hPa 0,0 l/m 0,93 h 0,00 h 806 W/m 15,1 km/h (3 Bft) 96,63 %
27.07.2021 15:00 25,5 C 26,5 C 23,0 C 64 % 1011,0 hPa 0,0 l/m 0,87 h 0,00 h 512 W/m 11,6 km/h (2 Bft) 97,86 %
27.07.2021 16:00 23,3 C 22,0 C 18,0 C 73 % 1011,1 hPa 0,6 l/m 0,00 h 0,30 h 87 W/m 12,2 km/h (2 Bft) 99,43 %
27.07.2021 17:00 17,7 C 16,3 C 14,2 C 89 % 1011,7 hPa 3,2 l/m 0,00 h 0,87 h 46 W/m 10,7 km/h (2 Bft) 95,66 %
27.07.2021 18:00 17,4 C 16,5 C 15,0 C 93 % 1011,7 hPa 1,6 l/m 0,00 h 0,73 h 45 W/m 7,3 km/h (2 Bft) 96,38 %
27.07.2021 19:00 17,3 C 16,5 C 15,8 C 95 % 1011,3 hPa 0,6 l/m 0,00 h 0,23 h 44 W/m 8,5 km/h (2 Bft) 98,86 %
27.07.2021 20:00 17,4 C 16,7 C 16,1 C 96 % 1010,9 hPa 0,0 l/m 0,33 h 0,00 h 48 W/m 6,4 km/h (2 Bft) 98,15 %
27.07.2021 21:00 17,1 C 16,2 C 16,1 C 95 % 1010,9 hPa 0,0 l/m 0,00 h 0,00 h 11 W/m 11,0 km/h (2 Bft) 97,00 %
27.07.2021 22:00 16,8 C 15,8 C 16,1 C 96 % 1011,3 hPa 0,0 l/m 0,00 h 0,00 h 0 W/m 6,6 km/h (2 Bft) 98,36 %
27.07.2021 23:00 16,7 C 16,1 C 16,1 C 96 % 1011,2 hPa 0,0 l/m 0,00 h 0,00 h 0 W/m 6,4 km/h (2 Bft) 98,64 %
28.07.2021 00:00 16,5 C 15,7 C 16,0 C 95 % 1011,3 hPa 0,0 l/m 0,00 h 0,00 h 0 W/m 5,1 km/h (1 Bft) 92,19 %
28.07.2021 01:00 16,1 C 15,6 C 15,6 C 95 % 1011,1 hPa 0,0 l/m 0,00 h 0,00 h 0 W/m 4,5 km/h (1 Bft) 95,45 %
28.07.2021 02:00 16,0 C 15,5 C 15,6 C 94 % 1010,9 hPa 0,0 l/m 0,00 h 0,00 h 0 W/m 7,1 km/h (2 Bft) 97,23 %
28.07.2021 03:00 16,0 C 15,6 C 16,1 C 95 % 1010,5 hPa 0,0 l/m 0,00 h 0,00 h 0 W/m 6,7 km/h (2 Bft) 96,44 %
28.07.2021 04:00 15,9 C 15,0 C 16,0 C 95 % 1010,3 hPa 0,0 l/m 0,00 h 0,00 h 0 W/m 5,5 km/h (1 Bft) 97,04 %
28.07.2021 05:00 15,8 C 15,1 C 16,1 C 95 % 1010,1 hPa 0,0 l/m 0,00 h 0,00 h 0 W/m 6,1 km/h (2 Bft) 99,09 %
28.07.2021 06:00 16,0 C 15,6 C 16,7 C 95 % 1010,2 hPa 0,0 l/m 0,00 h 0,00 h 12 W/m 7,3 km/h (2 Bft) 96,20 %
28.07.2021 07:00 16,5 C 16,1 C 17,2 C 95 % 1010,2 hPa 0,0 l/m 0,00 h 0,00 h 45 W/m 7,7 km/h (2 Bft) 99,50 %
28.07.2021 08:00 17,1 C 16,3 C 17,2 C 95 % 1010,2 hPa 2,4 l/m 0,00 h 0,30 h 79 W/m 8,1 km/h (2 Bft) 98,44 %
28.07.2021 09:00 17,2 C 16,6 C 17,3 C 96 % 1010,5 hPa 1,2 l/m 0,00 h 0,67 h 130 W/m 8,7 km/h (2 Bft) 86,84 %
28.07.2021 10:00 17,7 C 18,4 C 18,5 C 96 % 1010,4 hPa 0,2 l/m 0,40 h 0,20 h 385 W/m 15,2 km/h (3 Bft) 94,62 %
28.07.2021 11:00 20,0 C 21,3 C 19,5 C 85 % 1010,4 hPa 0,0 l/m 0,93 h 0,00 h 748 W/m 25,4 km/h (4 Bft) 94,28 %
28.07.2021 12:00 22,0 C 23,3 C 25,6 C 71 % 1010,2 hPa 0,0 l/m 0,70 h 0,00 h 677 W/m 23,2 km/h (4 Bft) 97,97 %
28.07.2021 13:00 22,9 C 24,0 C 22,6 C 65 % 1010,1 hPa 0,0 l/m 0,83 h 0,00 h 851 W/m 22,6 km/h (4 Bft) 97,94 %
28.07.2021 14:00 23,8 C 25,8 C 21,8 C 61 % 1010,4 hPa 0,0 l/m 0,87 h 0,00 h 841 W/m 25,8 km/h (4 Bft) 93,24 %
28.07.2021 15:00 23,6 C 24,9 C 21,0 C 59 % 1010,6 hPa 0,0 l/m 0,60 h 0,00 h 662 W/m 22,8 km/h (4 Bft) 98,42 %
28.07.2021 16:00 23,2 C 23,6 C 20,5 C 59 % 1010,6 hPa 0,0 l/m 0,37 h 0,00 h 325 W/m 20,1 km/h (4 Bft) 96,16 %
28.07.2021 17:00 22,8 C 24,3 C 20,1 C 62 % 1010,5 hPa 0,0 l/m 0,47 h 0,00 h 378 W/m 20,5 km/h (4 Bft) 98,44 %
28.07.2021 18:00 23,0 C 25,2 C 20,4 C 63 % 1010,4 hPa 0,0 l/m 0,67 h 0,00 h 341 W/m 16,6 km/h (3 Bft) 97,72 %
28.07.2021 19:00 22,4 C 22,0 C 19,4 C 64 % 1010,5 hPa 0,0 l/m 0,03 h 0,00 h 89 W/m 12,0 km/h (2 Bft) 95,30 %
28.07.2021 20:00 20,6 C 19,2 C 15,9 C 77 % 1010,7 hPa 0,2 l/m 0,00 h 0,27 h 24 W/m 8,6 km/h (2 Bft) 99,36 %
28.07.2021 21:00 19,6 C 18,9 C 16,7 C 75 % 1011,1 hPa 0,0 l/m 0,00 h 0,00 h 8 W/m 11,3 km/h (2 Bft) 98,79 %
28.07.2021 22:00 19,2 C 18,1 C 16,1 C 75 % 1011,1 hPa 0,0 l/m 0,00 h 0,00 h 0 W/m 8,7 km/h (2 Bft) 94,17 %
28.07.2021 23:00 18,5 C 17,7 C 15,7 C 78 % 1010,9 hPa 0,0 l/m 0,00 h 0,23 h 0 W/m 13,7 km/h (3 Bft) 99,34 %
29.07.2021 00:00 17,3 C 16,3 C 14,1 C 85 % 1011,2 hPa 0,2 l/m 0,00 h 0,23 h 0 W/m 11,1 km/h (2 Bft) 98,81 %
29.07.2021 01:00 16,4 C 15,4 C 13,7 C 90 % 1011,2 hPa 0,8 l/m 0,00 h 0,63 h 0 W/m 15,3 km/h (3 Bft) 96,33 %
29.07.2021 02:00 15,7 C 15,0 C 13,4 C 92 % 1010,8 hPa 0,0 l/m 0,00 h 0,20 h 0 W/m 16,3 km/h (3 Bft) 99,72 %
29.07.2021 03:00 15,5 C 14,7 C 13,4 C 92 % 1010,5 hPa 0,2 l/m 0,00 h 0,27 h 0 W/m 17,6 km/h (3 Bft) 97,09 %
29.07.2021 04:00 15,2 C 14,4 C 13,5 C 93 % 1010,5 hPa 0,0 l/m 0,00 h 0,00 h 0 W/m 15,0 km/h (3 Bft) 92,93 %
29.07.2021 05:00 15,3 C 14,8 C 13,9 C 92 % 1010,7 hPa 0,0 l/m 0,00 h 0,00 h 0 W/m 18,5 km/h (3 Bft) 98,86 %
29.07.2021 06:00 15,6 C 15,0 C 14,2 C 88 % 1011,0 hPa 0,0 l/m 0,00 h 0,00 h 25 W/m 22,0 km/h (4 Bft) 97,71 %
29.07.2021 07:00 15,8 C 15,3 C 15,0 C 86 % 1011,2 hPa 0,0 l/m 0,00 h 0,00 h 51 W/m 24,8 km/h (4 Bft) 97,80 %
29.07.2021 08:00 16,4 C 17,2 C 15,7 C 83 % 1011,5 hPa 0,0 l/m 0,67 h 0,00 h 273 W/m 25,7 km/h (4 Bft) 99,36 %
29.07.2021 09:00 17,4 C 18,9 C 17,1 C 78 % 1012,0 hPa 0,0 l/m 0,60 h 0,00 h 352 W/m 18,9 km/h (3 Bft) 96,10 %
29.07.2021 10:00 18,5 C 20,2 C 18,0 C 73 % 1012,1 hPa 0,0 l/m 0,87 h 0,00 h 657 W/m 22,5 km/h (4 Bft) 95,64 %
29.07.2021 11:00 19,3 C 20,2 C 18,2 C 68 % 1012,2 hPa 0,0 l/m 0,77 h 0,00 h 638 W/m 24,0 km/h (4 Bft) 99,50 %
29.07.2021 12:00 20,8 C 22,4 C 25,2 C 63 % 1012,3 hPa 0,0 l/m 1,00 h 0,00 h 960 W/m 27,1 km/h (4 Bft) 97,64 %
29.07.2021 13:00 21,3 C 22,5 C 20,4 C 60 % 1012,2 hPa 0,0 l/m 0,80 h 0,00 h 784 W/m 21,8 km/h (4 Bft) 96,26 %
29.07.2021 14:00 22,5 C 24,4 C 20,6 C 55 % 1012,2 hPa 0,0 l/m 0,87 h 0,00 h 875 W/m 25,6 km/h (4 Bft) 97,05 %
29.07.2021 15:00 22,9 C 24,3 C 20,0 C 54 % 1012,1 hPa 0,0 l/m 0,70 h 0,00 h 661 W/m 22,1 km/h (4 Bft) 98,51 %
29.07.2021 16:00 22,3 C 22,9 C 19,6 C 55 % 1012,0 hPa 0,0 l/m 0,20 h 0,00 h 291 W/m 17,6 km/h (3 Bft) 97,98 %
29.07.2021 17:00 22,4 C 24,8 C 19,8 C 57 % 1012,0 hPa 0,0 l/m 0,77 h 0,00 h 476 W/m 23,5 km/h (4 Bft) 95,07 %
29.07.2021 18:00 22,5 C 26,0 C 20,1 C 54 % 1011,9 hPa 0,0 l/m 1,00 h 0,00 h 412 W/m 20,7 km/h (4 Bft) 99,63 %
29.07.2021 19:00 21,5 C 21,8 C 18,3 C 56 % 1011,9 hPa 0,0 l/m 0,50 h 0,00 h 153 W/m 17,1 km/h (3 Bft) 98,15 %
29.07.2021 20:00 20,3 C 19,4 C 17,1 C 63 % 1012,0 hPa 0,0 l/m 0,20 h 0,00 h 48 W/m 8,4 km/h (2 Bft) 94,81 %
29.07.2021 21:00 19,3 C 18,2 C 16,0 C 67 % 1012,1 hPa 0,0 l/m 0,13 h 0,00 h 15 W/m 4,4 km/h (1 Bft) 99,57 %
29.07.2021 22:00 18,4 C 17,2 C 15,2 C 70 % 1012,1 hPa 0,0 l/m 0,00 h 0,00 h 0 W/m 5,1 km/h (1 Bft) 98,65 %
29.07.2021 23:00 17,5 C 16,5 C 14,4 C 74 % 1011,9 hPa 0,0 l/m 0,00 h 0,00 h 0 W/m 4,9 km/h (1 Bft) 95,45 %
30.07.2021 00:00 16,8 C 15,7 C 13,8 C 76 % 1011,8 hPa 0,0 l/m 0,00 h 0,00 h 0 W/m 2,9 km/h (1 Bft) 97,81 %
30.07.2021 01:00 16,2 C 15,2 C 13,4 C 79 % 1011,6 hPa 0,0 l/m 0,00 h 0,00 h 0 W/m 3,1 km/h (1 Bft) 97,94 %
30.07.2021 02:00 16,1 C 15,6 C 13,8 C 80 % 1011,4 hPa 0,0 l/m 0,00 h 0,00 h 0 W/m 4,4 km/h (1 Bft) 97,58 %
30.07.2021 03:00 16,2 C 15,4 C 13,6 C 80 % 1011,2 hPa 0,0 l/m 0,00 h 0,00 h 0 W/m 0,4 km/h (0 Bft) 99,79 %
30.07.2021 04:00 15,6 C 14,3 C 13,0 C 83 % 1010,9 hPa 0,0 l/m 0,00 h 0,00 h 0 W/m 2,1 km/h (1 Bft) 96,58 %
30.07.2021 05:00 14,9 C 13,9 C 12,7 C 86 % 1010,6 hPa 0,0 l/m 0,00 h 0,00 h 4 W/m 3,9 km/h (1 Bft) 95,59 %
30.07.2021 06:00 14,2 C 13,3 C 12,3 C 88 % 1010,5 hPa 0,0 l/m 0,00 h 0,00 h 18 W/m 5,7 km/h (1 Bft) 97,79 %
30.07.2021 07:00 14,1 C 13,7 C 12,7 C 90 % 1010,3 hPa 0,0 l/m 0,00 h 0,00 h 49 W/m 5,2 km/h (1 Bft) 98,51 %
30.07.2021 08:00 15,7 C 16,5 C 14,6 C 87 % 1010,0 hPa 0,0 l/m 0,57 h 0,00 h 215 W/m 9,5 km/h (2 Bft) 96,43 %
30.07.2021 09:00 18,9 C 22,4 C 18,9 C 77 % 1009,8 hPa 0,0 l/m 0,90 h 0,00 h 402 W/m 10,4 km/h (2 Bft) 91,63 %
30.07.2021 10:00 21,4 C 23,8 C 20,6 C 67 % 1009,3 hPa 0,0 l/m 0,97 h 0,00 h 604 W/m 15,7 km/h (3 Bft) 94,17 %
30.07.2021 11:00 22,9 C 23,7 C 21,9 C 62 % 1008,8 hPa 0,0 l/m 0,67 h 0,00 h 516 W/m 23,4 km/h (4 Bft) 98,81 %
30.07.2021 12:00 23,9 C 25,2 C 25,5 C 60 % 1008,1 hPa 0,0 l/m 0,57 h 0,00 h 615 W/m 20,9 km/h (4 Bft) 94,66 %
30.07.2021 13:00 25,1 C 26,3 C 24,2 C 57 % 1007,6 hPa 0,0 l/m 0,73 h 0,00 h 603 W/m 23,7 km/h (4 Bft) 94,39 %
30.07.2021 14:00 25,9 C 27,0 C 23,8 C 53 % 1006,9 hPa 0,0 l/m 0,70 h 0,00 h 547 W/m 28,7 km/h (4 Bft) 98,84 %
30.07.2021 15:00 25,3 C 24,8 C 22,5 C 54 % 1006,4 hPa 0,0 l/m 0,07 h 0,00 h 175 W/m 28,0 km/h (4 Bft) 98,30 %
30.07.2021 16:00 24,2 C 23,8 C 20,8 C 61 % 1006,3 hPa 0,0 l/m 0,13 h 0,10 h 209 W/m 18,9 km/h (3 Bft) 94,52 %
30.07.2021 17:00 23,7 C 26,2 C 20,8 C 66 % 1006,1 hPa 0,0 l/m 0,70 h 0,00 h 443 W/m 24,5 km/h (4 Bft) 97,68 %
30.07.2021 18:00 24,9 C 27,5 C 22,2 C 59 % 1005,6 hPa 0,0 l/m 0,90 h 0,00 h 394 W/m 28,1 km/h (4 Bft) 98,12 %
30.07.2021 19:00 24,4 C 24,1 C 20,7 C 61 % 1005,5 hPa 1,2 l/m 0,23 h 0,10 h 137 W/m 21,0 km/h (4 Bft) 98,22 %
30.07.2021 20:00 19,3 C 17,3 C 14,8 C 86 % 1006,3 hPa 1,4 l/m 0,00 h 0,13 h 29 W/m 7,4 km/h (2 Bft) 95,41 %
30.07.2021 21:00 18,5 C 17,3 C 14,5 C 87 % 1006,8 hPa 0,0 l/m 0,00 h 0,00 h 8 W/m 7,2 km/h (2 Bft) 98,44 %
30.07.2021 22:00 17,9 C 16,9 C 13,4 C 80 % 1007,2 hPa 0,0 l/m 0,00 h 0,00 h 0 W/m 6,0 km/h (2 Bft) 98,30 %
30.07.2021 23:00 17,9 C 17,1 C 14,1 C 75 % 1007,2 hPa 0,0 l/m 0,00 h 0,00 h 0 W/m 18,7 km/h (3 Bft) 99,16 %
31.07.2021 00:00 17,4 C 16,5 C 14,5 C 74 % 1007,0 hPa 0,0 l/m 0,00 h 0,00 h 0 W/m 21,4 km/h (4 Bft) 97,25 %
31.07.2021 01:00 16,9 C 16,1 C 14,2 C 75 % 1007,0 hPa 0,0 l/m 0,00 h 0,00 h 0 W/m 21,5 km/h (4 Bft) 95,79 %
31.07.2021 02:00 16,9 C 16,1 C 14,5 C 76 % 1006,9 hPa 0,0 l/m 0,00 h 0,00 h 0 W/m 22,8 km/h (4 Bft) 98,51 %
31.07.2021 03:00 16,9 C 16,1 C 14,5 C 77 % 1006,9 hPa 0,0 l/m 0,00 h 0,00 h 0 W/m 24,6 km/h (4 Bft) 96,89 %
31.07.2021 04:00 16,6 C 15,8 C 14,0 C 79 % 1006,7 hPa 0,0 l/m 0,00 h 0,00 h 0 W/m 27,4 km/h (4 Bft) 97,83 %
31.07.2021 05:00 16,5 C 15,9 C 13,9 C 79 % 1006,5 hPa 0,0 l/m 0,00 h 0,00 h 0 W/m 28,5 km/h (4 Bft) 97,66 %
31.07.2021 06:00 16,1 C 15,6 C 13,7 C 81 % 1006,8 hPa 0,0 l/m 0,00 h 0,00 h 14 W/m 26,2 km/h (4 Bft) 96,69 %
31.07.2021 07:00 16,3 C 15,6 C 13,9 C 81 % 1007,2 hPa 0,0 l/m 0,00 h 0,00 h 39 W/m 26,3 km/h (4 Bft) 97,87 %
31.07.2021 08:00 16,5 C 16,3 C 14,5 C 81 % 1007,6 hPa 0,0 l/m 0,07 h 0,00 h 111 W/m 25,3 km/h (4 Bft) 98,02 %
31.07.2021 09:00 17,4 C 18,9 C 16,7 C 80 % 1008,0 hPa 0,0 l/m 0,60 h 0,00 h 391 W/m 27,1 km/h (4 Bft) 98,33 %
31.07.2021 10:00 18,8 C 20,0 C 17,8 C 76 % 1008,1 hPa 0,0 l/m 0,63 h 0,00 h 456 W/m 25,7 km/h (4 Bft) 96,08 %
31.07.2021 11:00 19,4 C 20,1 C 18,4 C 73 % 1008,3 hPa 0,0 l/m 0,70 h 0,00 h 590 W/m 25,5 km/h (4 Bft) 96,10 %
31.07.2021 12:00 20,6 C 21,7 C 23,3 C 69 % 1008,5 hPa 0,0 l/m 0,67 h 0,00 h 724 W/m 24,4 km/h (4 Bft) 99,26 %
31.07.2021 13:00 21,6 C 22,3 C 20,1 C 65 % 1008,7 hPa 0,0 l/m 0,40 h 0,00 h 436 W/m 22,3 km/h (4 Bft) 97,01 %
31.07.2021 14:00 21,3 C 21,7 C 19,1 C 66 % 1008,9 hPa 0,0 l/m 0,27 h 0,00 h 325 W/m 19,0 km/h (3 Bft) 95,44 %
31.07.2021 15:00 21,5 C 22,6 C 19,0 C 68 % 1009,3 hPa 0,0 l/m 0,40 h 0,00 h 450 W/m 17,2 km/h (3 Bft) 99,14 %
31.07.2021 16:00 22,4 C 23,4 C 19,6 C 65 % 1009,3 hPa 0,0 l/m 0,57 h 0,00 h 370 W/m 16,8 km/h (3 Bft) 97,93 %
31.07.2021 17:00 22,0 C 22,6 C 19,2 C 65 % 1009,3 hPa 0,0 l/m 0,27 h 0,00 h 262 W/m 15,6 km/h (3 Bft) 96,88 %
31.07.2021 18:00 22,5 C 23,8 C 19,7 C 63 % 1009,1 hPa 0,0 l/m 0,60 h 0,00 h 292 W/m 13,2 km/h (3 Bft) 97,13 %
31.07.2021 19:00 21,5 C 21,0 C 18,4 C 66 % 1009,2 hPa 0,0 l/m 0,23 h 0,00 h 103 W/m 11,6 km/h (2 Bft) 96,78 %
31.07.2021 20:00 20,5 C 19,2 C 16,9 C 72 % 1009,5 hPa 3,0 l/m 0,00 h 0,20 h 28 W/m 6,3 km/h (2 Bft) 97,80 %
31.07.2021 21:00 17,9 C 15,8 C 14,0 C 89 % 1009,8 hPa 1,0 l/m 0,00 h 0,47 h 9 W/m 5,6 km/h (1 Bft) 94,53 %
31.07.2021 22:00 17,2 C 15,9 C 14,4 C 93 % 1010,1 hPa 4,0 l/m 0,00 h 0,23 h 0 W/m 3,4 km/h (1 Bft) 99,50 %
31.07.2021 23:00 16,5 C 15,0 C 14,0 C 94 % 1010,1 hPa 0,0 l/m 0,00 h 0,13 h 0 W/m 1,4 km/h (1 Bft) 98,35 %
01.08.2021 00:00 16,0 C 14,7 C 13,9 C 95 % 1010,0 hPa 0,2 l/m 0,00 h 0,00 h 0 W/m 1,9 km/h (1 Bft) 97,49 %
01.08.2021 01:00 15,9 C 14,8 C 14,5 C 96 % 1009,9 hPa 0,0 l/m 0,00 h 0,00 h 0 W/m 1,2 km/h (1 Bft) 99,50 %
01.08.2021 02:00 15,9 C 15,0 C 14,9 C 96 % 1009,7 hPa 0,0 l/m 0,00 h 0,00 h 0 W/m 2,1 km/h (1 Bft) 96,37 %
01.08.2021 03:00 15,8 C 15,0 C 15,0 C 96 % 1009,4 hPa 0,0 l/m 0,00 h 0,00 h 0 W/m 1,6 km/h (1 Bft) 95,87 %
01.08.2021 04:00 15,5 C 14,5 C 15,0 C 96 % 1009,4 hPa 0,0 l/m 0,00 h 0,00 h 0 W/m 3,4 km/h (1 Bft) 98,62 %
01.08.2021 05:00 14,9 C 14,0 C 14,5 C 96 % 1009,5 hPa 0,0 l/m 0,00 h 0,00 h 0 W/m 4,8 km/h (1 Bft) 99,85 %
01.08.2021 06:00 14,3 C 13,8 C 14,0 C 96 % 1009,5 hPa 0,0 l/m 0,00 h 0,00 h 10 W/m 5,9 km/h (2 Bft) 100,00 %
01.08.2021 07:00 14,2 C 13,7 C 14,2 C 96 % 1009,5 hPa 0,0 l/m 0,00 h 0,00 h 38 W/m 9,0 km/h (2 Bft) 99,17 %
01.08.2021 08:00 15,0 C 15,8 C 15,1 C 95 % 1009,5 hPa 0,0 l/m 0,40 h 0,00 h 207 W/m 9,0 km/h (2 Bft) 98,66 %
01.08.2021 09:00 16,6 C 18,6 C 17,1 C 89 % 1009,7 hPa 0,0 l/m 0,43 h 0,00 h 314 W/m 10,5 km/h (2 Bft) 97,72 %
01.08.2021 10:00 16,5 C 16,9 C 17,0 C 85 % 1010,0 hPa 0,0 l/m 0,23 h 0,00 h 281 W/m 15,1 km/h (3 Bft) 97,66 %
01.08.2021 11:00 17,4 C 17,9 C 17,8 C 84 % 1010,3 hPa 0,0 l/m 0,40 h 0,00 h 327 W/m 13,3 km/h (3 Bft) 95,85 %
01.08.2021 12:00 18,5 C 19,1 C 19,0 C 81 % 1010,4 hPa 0,0 l/m 0,27 h 0,00 h 351 W/m 12,3 km/h (3 Bft) 97,76 %
01.08.2021 13:00 18,9 C 19,6 C 18,8 C 79 % 1010,3 hPa 0,0 l/m 0,27 h 0,00 h 343 W/m 10,0 km/h (2 Bft) 97,81 %
01.08.2021 14:00 21,0 C 22,8 C 19,7 C 73 % 1009,8 hPa 0,0 l/m 0,63 h 0,03 h 632 W/m 11,6 km/h (2 Bft) 96,23 %
01.08.2021 15:00 20,7 C 20,9 C 18,8 C 73 % 1009,5 hPa 0,0 l/m 0,20 h 0,00 h 289 W/m 12,0 km/h (2 Bft) 96,37 %
01.08.2021 16:00 20,0 C 21,3 C 18,1 C 82 % 1009,8 hPa 0,0 l/m 0,70 h 0,30 h 476 W/m 17,9 km/h (3 Bft) 99,00 %
01.08.2021 17:00 20,2 C 21,0 C 18,3 C 77 % 1010,1 hPa 0,0 l/m 0,40 h 0,00 h 262 W/m 13,2 km/h (3 Bft) 98,50 %
01.08.2021 18:00 19,3 C 19,1 C 17,4 C 77 % 1010,4 hPa 0,0 l/m 0,17 h 0,00 h 170 W/m 12,9 km/h (3 Bft) 96,62 %
01.08.2021 19:00 18,9 C 18,3 C 16,8 C 81 % 1010,6 hPa 0,0 l/m 0,00 h 0,00 h 71 W/m 10,7 km/h (2 Bft) 96,28 %
01.08.2021 20:00 18,0 C 17,2 C 15,9 C 80 % 1011,1 hPa 0,0 l/m 0,00 h 0,00 h 20 W/m 8,9 km/h (2 Bft) 99,64 %
01.08.2021 21:00 17,4 C 16,7 C 15,6 C 84 % 1011,6 hPa 0,0 l/m 0,00 h 0,00 h 5 W/m 7,8 km/h (2 Bft) 97,94 %
01.08.2021 22:00 17,0 C 16,1 C 15,2 C 87 % 1012,0 hPa 0,0 l/m 0,00 h 0,00 h 0 W/m 6,6 km/h (2 Bft) 97,50 %
01.08.2021 23:00 16,5 C 15,6 C 15,0 C 89 % 1012,4 hPa 0,0 l/m 0,00 h 0,00 h 0 W/m 6,8 km/h (2 Bft) 97,86 %
Min-Datum _ 30.07.21 30.07.21 30.07.21 29.07.21 30.07.21 - - - - 26.07.21 28.07.21
_ Min-Zeit 06:54 06:02 05:54 15:48 19:34 - - - - 00:00 00:02
Minimum _ 14,0 C 13,3 C 12,3 C 51 % 1005,2 hPa - - - - 0,0 km/h (0 Bft) 11,76 %
Max-Datum _ 30.07.21 26.07.21 26.07.21 27.07.21 29.07.21 31.07.21 31.07.21 26.07.21 28.07.21 30.07.21 26.07.21
_ Max-Zeit 14:44 16:20 12:30 06:20 12:26 22:50 11:17 19:36 13:28 15:10 00:02
Maximum _ 26,4 C 30,0 C 31,1 C 96 % 1012,5 hPa 4,0 l/m 0,08 h 0,03 h 1130 W/m 61,2 km/h
S-SW (7 Bft)
100,00 %
Durchschnitt _ 19,2 C 19,2 C 17,5 C 79 % 1010,2 hPa #22,8 l/m #45:54 h #7:52 h 306 W/m 13,3 km/h (3 Bft) 97,32 %
© 2021 W. Hausmann